Amposta, Spain
Current Conditions -  °F | °C
As of 3:30 PM on Sunday 23 Nov 2014 (Local Time) from LERS Reporting Station
Clear Clear  
Wind Chill: 72°   Ceiling: Unl
Heat Index: 72°   Visibility: 6mi
Dew Point: 61°   Wind: 5mph
Humidity: 69%   Direction: 80°E
Pressure: 30"   Gusts: NA
Location:  40.71°N, 0.58°E
Report Text: LERS 231430Z 08004KT CAVOK 22/16 Q1016
Loading
Personal Weather Stations






























Interactive Weather Map New forecast layout! Learn more

10-Day Weather Forecast

Advertisements
Track Severe Weather on mobile